Time;durP1;ratioP1;P1;durP2;ratioP2;P2;SDS_P1;SDS_P2;PMS_P1;PMS_P2;Temp;Humidity;BMP_temperature;BMP_pressure;BME280_temperature;BME280_humidity;BME280_pressure;Samples;Min_cycle;Max_cycle;Signal;HPM_P1;HPM_P2
2023/06/07 00:00:52;;;;;;;;;4.67;4.67;;;;;;;;5077349;28;45429;-79
2023/06/07 00:03:19;;;;;;;;;6.67;4.33;;;;;;;;5077575;28;45233;-79
2023/06/07 00:05:45;;;;;;;;;5.25;4.50;;;;;;;;5076179;27;45630;-80
2023/06/07 00:08:10;;;;;;;;;5.50;3.75;;;;;;;;5077290;27;45787;-80
2023/06/07 00:10:36;;;;;;;;;4.00;4.00;;;;;;;;5077302;27;45352;-79
2023/06/07 00:13:02;;;;;;;;;4.75;3.50;;;;;;;;5077350;27;45409;-80
2023/06/07 00:15:27;;;;;;;;;5.00;4.00;;;;;;;;5075657;28;45440;-80
2023/06/07 00:17:52;;;;;;;;;5.33;2.00;;;;;;;;5077084;28;45350;-80
2023/06/07 00:20:18;;;;;;;;;6.00;4.00;;;;;;;;5077078;28;45446;-79
2023/06/07 00:22:43;;;;;;;;;7.00;4.75;;;;;;;;5077166;28;45486;-80
2023/06/07 00:25:09;;;;;;;;;11.25;5.00;;;;;;;;5077080;27;45240;-80
2023/06/07 00:27:34;;;;;;;;;3.25;3.00;;;;;;;;5077113;27;46322;-80
2023/06/07 00:29:59;;;;;;;;;6.00;5.00;;;;;;;;5076623;28;45438;-80
2023/06/07 00:32:25;;;;;;;;;4.00;4.00;;;;;;;;5077133;28;45332;-80
2023/06/07 00:34:50;;;;;;;;;5.00;3.00;;;;;;;;5077117;28;45414;-79
2023/06/07 00:37:15;;;;;;;;;6.67;5.33;;;;;;;;5076702;28;46586;-80
2023/06/07 00:39:41;;;;;;;;;7.33;4.00;;;;;;;;5076881;28;45537;-80
2023/06/07 00:42:06;;;;;;;;;4.50;4.00;;;;;;;;5077025;27;45374;-79
2023/06/07 00:44:31;;;;;;;;;4.50;4.25;;;;;;;;5076302;27;45375;-80
2023/06/07 00:46:57;;;;;;;;;9.00;5.00;;;;;;;;5076532;28;47191;-81
2023/06/07 00:49:22;;;;;;;;;6.00;4.00;;;;;;;;5076642;28;45439;-80
2023/06/07 00:51:47;;;;;;;;;7.75;5.50;;;;;;;;5076819;27;45608;-81
2023/06/07 00:54:17;;;;;;;;;5.50;4.25;;;;;;;;5075551;28;45532;-81
2023/06/07 00:56:43;;;;;;;;;11.50;5.50;;;;;;;;5076418;27;45311;-81
2023/06/07 00:59:08;;;;;;;;;8.00;4.00;;;;;;;;5076170;27;45666;-80
2023/06/07 01:01:33;;;;;;;;;5.00;5.00;;;;;;;;5076615;27;45278;-81
2023/06/07 01:04:00;;;;;;;;;6.33;5.00;;;;;;;;5076422;28;45431;-81
2023/06/07 01:06:25;;;;;;;;;7.75;3.75;;;;;;;;5074314;28;47422;-81
2023/06/07 01:08:53;;;;;;;;;6.50;4.50;;;;;;;;5075817;27;45287;-80
2023/06/07 01:11:21;;;;;;;;;6.00;4.00;;;;;;;;5076411;27;45299;-80
2023/06/07 01:13:47;;;;;;;;;6.50;4.75;;;;;;;;5075948;27;45379;-81
2023/06/07 01:16:12;;;;;;;;;5.00;4.00;;;;;;;;5075856;27;47385;-81
2023/06/07 01:18:38;;;;;;;;;7.75;5.25;;;;;;;;5076369;28;45424;-80
2023/06/07 01:21:05;;;;;;;;;4.25;3.75;;;;;;;;5076216;27;45386;-80
2023/06/07 01:23:31;;;;;;;;;8.50;5.00;;;;;;;;5076371;27;45802;-80
2023/06/07 01:25:58;;;;;;;;;6.75;5.00;;;;;;;;5075953;27;45466;-80
2023/06/07 01:28:24;;;;;;;;;7.25;3.75;;;;;;;;5075873;27;45794;-80
2023/06/07 01:30:50;;;;;;;;;6.50;5.25;;;;;;;;5076261;27;45490;-81
2023/06/07 01:33:16;;;;;;;;;6.50;4.00;;;;;;;;5076196;28;45521;-80
2023/06/07 01:35:41;;;;;;;;;9.25;5.75;;;;;;;;5075796;27;47737;-80
2023/06/07 01:38:07;;;;;;;;;6.25;3.75;;;;;;;;5075922;27;45281;-81
2023/06/07 01:40:33;;;;;;;;;9.25;5.00;;;;;;;;5075989;27;45246;-80
2023/06/07 01:42:59;;;;;;;;;6.50;4.75;;;;;;;;5075801;27;45509;-80
2023/06/07 01:45:24;;;;;;;;;8.75;4.75;;;;;;;;5075622;27;46824;-81
2023/06/07 01:47:50;;;;;;;;;7.75;5.25;;;;;;;;5075939;27;45245;-80
2023/06/07 01:50:22;;;;;;;;;9.25;5.25;;;;;;;;5076051;27;45258;-79
2023/06/07 01:52:47;;;;;;;;;5.50;3.50;;;;;;;;5076032;27;45556;-79
2023/06/07 01:55:12;;;;;;;;;9.67;5.00;;;;;;;;5075699;28;45354;-79
2023/06/07 01:57:38;;;;;;;;;8.67;5.67;;;;;;;;5075231;28;45526;-80
2023/06/07 02:00:21;;;;;;;;;10.25;6.75;;;;;;;;5075764;27;45478;-81
2023/06/07 02:03:06;;;;;;;;;6.75;5.75;;;;;;;;5075881;27;45500;-81
2023/06/07 02:05:33;;;;;;;;;6.25;5.00;;;;;;;;5075610;27;46533;-80
2023/06/07 02:08:00;;;;;;;;;7.25;4.25;;;;;;;;5075731;27;45570;-80
2023/06/07 02:10:28;;;;;;;;;11.25;6.00;;;;;;;;5075897;27;45366;-80
2023/06/07 02:12:53;;;;;;;;;6.25;5.25;;;;;;;;5074061;28;45578;-80
2023/06/07 02:15:21;;;;;;;;;5.00;4.00;;;;;;;;5075539;27;45618;-80
2023/06/07 02:17:51;;;;;;;;;5.25;4.50;;;;;;;;5075381;27;45364;-80
2023/06/07 02:20:17;;;;;;;;;10.50;6.25;;;;;;;;5075564;27;45376;-80
2023/06/07 02:22:43;;;;;;;;;5.75;4.50;;;;;;;;5074228;28;45467;-80
2023/06/07 02:25:08;;;;;;;;;6.00;5.00;;;;;;;;5075328;27;46625;-80
2023/06/07 02:27:34;;;;;;;;;9.00;5.25;;;;;;;;5074916;27;45374;-80
2023/06/07 02:29:59;;;;;;;;;8.50;6.00;;;;;;;;5078513;27;45343;-80
2023/06/07 02:32:25;;;;;;;;;6.00;6.00;;;;;;;;5078573;27;45561;-80
2023/06/07 02:34:50;;;;;;;;;10.00;7.50;;;;;;;;5078719;27;47146;-81
2023/06/07 02:37:16;;;;;;;;;10.00;5.33;;;;;;;;5078928;28;45502;-80
2023/06/07 02:39:41;;;;;;;;;8.75;5.00;;;;;;;;5078872;27;45489;-80
2023/06/07 02:42:06;;;;;;;;;8.00;6.00;;;;;;;;5078550;28;45480;-80
2023/06/07 02:44:31;;;;;;;;;5.67;4.00;;;;;;;;5078534;28;45556;-81
2023/06/07 02:46:56;;;;;;;;;5.67;5.00;;;;;;;;5078515;28;45543;-82
2023/06/07 02:49:21;;;;;;;;;5.67;5.33;;;;;;;;5078502;28;45400;-81
2023/06/07 02:51:47;;;;;;;;;6.67;6.00;;;;;;;;5078653;28;45366;-79
2023/06/07 02:54:15;;;;;;;;;8.75;5.00;;;;;;;;5078653;27;46107;-79
2023/06/07 02:56:41;;;;;;;;;14.25;7.75;;;;;;;;5078002;27;45514;-80
2023/06/07 02:59:06;;;;;;;;;8.67;8.33;;;;;;;;5078663;28;45248;-80
2023/06/07 03:01:33;;;;;;;;;11.33;5.00;;;;;;;;5077197;28;45486;-80
2023/06/07 03:03:58;;;;;;;;;5.50;5.50;;;;;;;;5078274;27;47012;-79
2023/06/07 03:06:28;;;;;;;;;10.50;8.00;;;;;;;;5078397;27;45449;-80
2023/06/07 03:08:53;;;;;;;;;5.25;5.00;;;;;;;;5078375;27;45302;-79
2023/06/07 03:11:18;;;;;;;;;5.00;4.00;;;;;;;;5078180;28;45601;-79
2023/06/07 03:13:44;;;;;;;;;6.67;4.33;;;;;;;;5078231;28;45352;-79
2023/06/07 03:16:09;;;;;;;;;8.25;4.25;;;;;;;;5078132;27;45366;-80
2023/06/07 03:18:34;;;;;;;;;5.25;5.00;;;;;;;;5078156;27;45258;-79
2023/06/07 03:21:00;;;;;;;;;5.33;4.00;;;;;;;;5078392;28;45264;-80
2023/06/07 03:23:25;;;;;;;;;9.33;6.00;;;;;;;;5077672;28;46307;-80
2023/06/07 03:25:51;;;;;;;;;6.50;4.50;;;;;;;;5076939;27;45424;-80
2023/06/07 03:28:16;;;;;;;;;9.25;6.75;;;;;;;;5075917;28;45511;-79
2023/06/07 03:30:41;;;;;;;;;9.67;5.67;;;;;;;;5077816;28;45542;-80
2023/06/07 03:33:06;;;;;;;;;6.67;5.33;;;;;;;;5077602;28;45610;-80
2023/06/07 03:35:31;;;;;;;;;5.33;5.33;;;;;;;;5076696;28;45474;-80
2023/06/07 03:37:56;;;;;;;;;7.00;5.00;;;;;;;;5077936;28;45269;-79
2023/06/07 03:40:22;;;;;;;;;7.75;6.25;;;;;;;;5077160;28;45510;-79
2023/06/07 03:42:47;;;;;;;;;7.67;5.00;;;;;;;;5077730;28;45299;-80
2023/06/07 03:45:12;;;;;;;;;11.00;7.00;;;;;;;;5077650;28;45321;-80
2023/06/07 03:47:37;;;;;;;;;9.67;7.00;;;;;;;;5078194;28;45434;-81
2023/06/07 03:50:03;;;;;;;;;6.67;6.67;;;;;;;;5077963;28;45311;-81
2023/06/07 03:52:28;;;;;;;;;11.00;7.00;;;;;;;;5076315;28;48292;-79
2023/06/07 03:54:53;;;;;;;;;9.67;6.33;;;;;;;;5077308;28;45424;-80
2023/06/07 03:57:19;;;;;;;;;7.00;4.00;;;;;;;;5077501;28;45320;-80
2023/06/07 03:59:44;;;;;;;;;10.00;8.00;;;;;;;;5077137;28;45369;-79
2023/06/07 04:02:09;;;;;;;;;8.00;6.00;;;;;;;;5077409;28;46387;-79
2023/06/07 04:04:34;;;;;;;;;8.25;7.75;;;;;;;;5077270;27;45468;-79
2023/06/07 04:07:01;;;;;;;;;8.33;6.00;;;;;;;;5077690;28;45450;-80
2023/06/07 04:09:26;;;;;;;;;11.75;6.00;;;;;;;;5076500;28;46135;-80
2023/06/07 04:11:51;;;;;;;;;13.00;6.25;;;;;;;;5077299;27;46541;-80
2023/06/07 04:14:16;;;;;;;;;10.67;6.67;;;;;;;;5077342;28;45573;-80
2023/06/07 04:16:42;;;;;;;;;11.33;6.00;;;;;;;;5077464;28;45441;-81
2023/06/07 04:19:07;;;;;;;;;12.50;7.25;;;;;;;;5077255;28;45336;-80
2023/06/07 04:21:32;;;;;;;;;9.00;7.00;;;;;;;;5076789;28;47086;-80
2023/06/07 04:23:58;;;;;;;;;7.00;6.33;;;;;;;;5076802;28;45479;-80
2023/06/07 04:26:23;;;;;;;;;7.67;6.67;;;;;;;;5077391;28;45353;-80
2023/06/07 04:28:49;;;;;;;;;12.00;8.00;;;;;;;;5077031;28;45494;-80
2023/06/07 04:31:14;;;;;;;;;10.00;6.50;;;;;;;;5076966;27;46608;-81
2023/06/07 04:33:40;;;;;;;;;17.33;8.67;;;;;;;;5077032;28;45372;-81
2023/06/07 04:36:08;;;;;;;;;11.75;7.00;;;;;;;;5076965;27;45378;-81
2023/06/07 04:38:33;;;;;;;;;15.25;8.50;;;;;;;;5076696;27;45412;-81
2023/06/07 04:41:00;;;;;;;;;9.00;7.33;;;;;;;;5077088;28;45392;-80
2023/06/07 04:43:26;;;;;;;;;16.25;8.00;;;;;;;;5076819;27;45865;-80
2023/06/07 04:45:54;;;;;;;;;10.50;9.00;;;;;;;;5076777;28;45378;-81
2023/06/07 04:48:28;;;;;;;;;11.25;6.50;;;;;;;;5076671;28;45259;-81
2023/06/07 04:50:54;;;;;;;;;9.00;6.50;;;;;;;;5075334;27;46461;-79
2023/06/07 04:53:19;;;;;;;;;8.75;6.50;;;;;;;;5075426;28;45351;-80
2023/06/07 04:55:45;;;;;;;;;17.67;11.00;;;;;;;;5076821;28;45364;-80
2023/06/07 04:58:11;;;;;;;;;10.25;7.25;;;;;;;;5076557;27;45401;-81
2023/06/07 05:00:38;;;;;;;;;10.25;7.50;;;;;;;;5076551;27;46338;-81
2023/06/07 05:03:08;;;;;;;;;14.00;8.50;;;;;;;;5075448;28;46049;-80
2023/06/07 05:05:37;;;;;;;;;6.50;5.00;;;;;;;;5076272;27;45466;-80
2023/06/07 05:08:02;;;;;;;;;9.50;8.00;;;;;;;;5076704;27;45357;-79
2023/06/07 05:10:27;;;;;;;;;14.75;8.00;;;;;;;;5076186;27;47112;-80
2023/06/07 05:12:52;;;;;;;;;10.00;8.00;;;;;;;;5076372;28;45550;-81
2023/06/07 05:15:18;;;;;;;;;11.33;8.33;;;;;;;;5076650;28;45287;-81
2023/06/07 05:17:45;;;;;;;;;7.33;7.00;;;;;;;;5076540;28;45353;-81
2023/06/07 05:20:13;;;;;;;;;14.00;7.00;;;;;;;;5075920;27;46233;-81
2023/06/07 05:22:41;;;;;;;;;16.00;9.50;;;;;;;;5076183;27;45855;-80
2023/06/07 05:25:09;;;;;;;;;9.00;8.25;;;;;;;;5076348;28;45476;-80
2023/06/07 05:27:35;;;;;;;;;15.00;8.00;;;;;;;;5076352;27;45416;-81
2023/06/07 05:30:01;;;;;;;;;13.00;8.50;;;;;;;;5076323;27;46894;-80
2023/06/07 05:32:26;;;;;;;;;10.75;8.75;;;;;;;;5076204;27;45284;-80
2023/06/07 05:34:52;;;;;;;;;12.00;7.67;;;;;;;;5075591;28;45389;-80
2023/06/07 05:37:18;;;;;;;;;9.75;8.50;;;;;;;;5076155;27;45573;-80
2023/06/07 05:39:45;;;;;;;;;11.00;9.00;;;;;;;;5076170;27;46196;-80
2023/06/07 05:42:11;;;;;;;;;15.50;9.00;;;;;;;;5076194;27;45753;-80
2023/06/07 05:44:36;;;;;;;;;13.50;7.75;;;;;;;;5076152;27;45279;-80
2023/06/07 05:47:01;;;;;;;;;13.00;9.00;;;;;;;;5070207;28;45462;-82
2023/06/07 05:49:27;;;;;;;;;11.75;10.25;;;;;;;;5073331;27;47138;-78
2023/06/07 05:51:52;;;;;;;;;10.67;7.33;;;;;;;;5055457;28;45415;-79
2023/06/07 05:54:18;;;;;;;;;13.67;10.67;;;;;;;;5062603;28;45311;-80
2023/06/07 05:56:43;;;;;;;;;14.50;8.00;;;;;;;;5074713;27;45580;-83
2023/06/07 05:59:08;;;;;;;;;13.67;9.33;;;;;;;;5055370;28;45395;-84
2023/06/07 06:01:34;;;;;;;;;13.33;9.00;;;;;;;;5062389;28;45292;-83
2023/06/07 06:04:01;;;;;;;;;13.00;6.00;;;;;;;;5079015;27;45432;-83
2023/06/07 06:06:26;;;;;;;;;11.75;6.75;;;;;;;;5078296;27;45370;-83
2023/06/07 06:08:51;;;;;;;;;17.00;6.00;;;;;;;;5058752;28;48292;-85
2023/06/07 06:11:17;;;;;;;;;11.67;9.00;;;;;;;;5064586;28;45578;-87
2023/06/07 06:13:43;;;;;;;;;13.00;9.00;;;;;;;;5078387;28;45441;-86
2023/06/07 06:16:08;;;;;;;;;12.75;9.00;;;;;;;;5067684;28;45402;-87
2023/06/07 06:18:33;;;;;;;;;12.33;8.67;;;;;;;;5090586;27;45387;-88
2023/06/07 06:20:58;;;;;;;;;14.00;8.00;;;;;;;;5089400;27;45355;-85
2023/06/07 06:23:24;;;;;;;;;18.67;10.00;;;;;;;;5072726;27;45452;-86
2023/06/07 06:25:49;;;;;;;;;17.00;7.25;;;;;;;;5078059;27;45399;-85
2023/06/07 06:28:15;;;;;;;;;12.50;10.75;;;;;;;;5074038;27;46896;-87
2023/06/07 06:30:40;;;;;;;;;16.75;8.00;;;;;;;;5078900;27;45425;-83
2023/06/07 06:33:05;;;;;;;;;16.33;8.67;;;;;;;;5072386;27;45291;-92
2023/06/07 06:35:32;;;;;;;;;16.00;9.33;;;;;;;;5079900;27;45599;-88
2023/06/07 06:37:58;;;;;;;;;10.50;8.00;;;;;;;;5076981;27;47112;-87
2023/06/07 06:40:23;;;;;;;;;12.50;9.00;;;;;;;;5078910;28;45292;-84
2023/06/07 06:42:48;;;;;;;;;8.00;7.00;;;;;;;;5064576;28;45364;-86
2023/06/07 06:45:13;;;;;;;;;12.00;8.67;;;;;;;;5060622;27;45415;-87
2023/06/07 06:47:41;;;;;;;;;15.00;8.00;;;;;;;;5057985;28;45451;-86
2023/06/07 06:50:07;;;;;;;;;10.50;9.00;;;;;;;;5058635;28;45790;-86
2023/06/07 06:52:33;;;;;;;;;11.00;8.00;;;;;;;;5058599;28;45371;-86
2023/06/07 06:54:58;;;;;;;;;16.50;9.25;;;;;;;;5058606;28;45503;-86
2023/06/07 06:57:23;;;;;;;;;12.00;8.00;;;;;;;;5058220;28;46974;-87
2023/06/07 06:59:49;;;;;;;;;18.25;11.75;;;;;;;;5058287;28;45293;-86
2023/06/07 07:02:14;;;;;;;;;10.00;8.33;;;;;;;;5058086;28;45300;-86
2023/06/07 07:04:39;;;;;;;;;8.00;8.00;;;;;;;;5058273;28;45493;-86
2023/06/07 07:07:04;;;;;;;;;11.00;8.00;;;;;;;;5058166;28;46445;-86
2023/06/07 07:09:30;;;;;;;;;11.00;8.00;;;;;;;;5058397;28;45350;-86
2023/06/07 07:11:55;;;;;;;;;12.50;10.00;;;;;;;;5058607;28;45351;-88
2023/06/07 07:14:20;;;;;;;;;7.33;4.67;;;;;;;;5074512;28;45471;-87
2023/06/07 07:16:46;;;;;;;;;9.00;7.67;;;;;;;;5078083;28;46435;-87
2023/06/07 07:19:11;;;;;;;;;12.33;9.33;;;;;;;;5078438;28;45324;-88
2023/06/07 07:21:37;;;;;;;;;12.50;8.75;;;;;;;;5078253;27;45222;-88
2023/06/07 07:24:02;;;;;;;;;8.50;7.50;;;;;;;;5078474;27;45231;-87
2023/06/07 07:26:28;;;;;;;;;11.75;8.00;;;;;;;;5078006;28;46484;-87
2023/06/07 07:28:53;;;;;;;;;13.25;9.75;;;;;;;;5078334;27;45281;-86
2023/06/07 07:31:18;;;;;;;;;10.33;7.33;;;;;;;;5077948;28;45299;-86
2023/06/07 07:33:43;;;;;;;;;14.00;9.00;;;;;;;;5078345;28;45330;-87
2023/06/07 07:36:09;;;;;;;;;13.25;8.25;;;;;;;;5078090;27;46149;-87
2023/06/07 07:38:37;;;;;;;;;10.25;8.00;;;;;;;;5077935;27;45371;-87
2023/06/07 07:41:02;;;;;;;;;11.25;7.00;;;;;;;;5078329;27;45429;-88
2023/06/07 07:43:28;;;;;;;;;10.75;8.00;;;;;;;;5078058;27;45375;-86
2023/06/07 07:45:53;;;;;;;;;10.00;7.67;;;;;;;;5077361;28;46281;-86
2023/06/07 07:48:18;;;;;;;;;7.33;6.33;;;;;;;;5077917;28;45451;-87
2023/06/07 07:50:43;;;;;;;;;8.33;6.33;;;;;;;;5078237;28;45554;-86
2023/06/07 07:53:08;;;;;;;;;15.33;9.00;;;;;;;;5077845;28;45321;-86
2023/06/07 07:55:34;;;;;;;;;11.00;9.00;;;;;;;;5076292;28;45542;-85
2023/06/07 07:58:00;;;;;;;;;10.50;8.00;;;;;;;;5065152;27;45951;-87
2023/06/07 08:00:25;;;;;;;;;14.50;8.25;;;;;;;;5061920;27;45837;-87
2023/06/07 08:02:50;;;;;;;;;8.00;7.67;;;;;;;;5074960;28;45597;-85
2023/06/07 08:05:15;;;;;;;;;13.33;8.33;;;;;;;;5077007;27;45658;-86
2023/06/07 08:07:41;;;;;;;;;14.00;7.67;;;;;;;;5068114;28;45799;-85
2023/06/07 08:10:06;;;;;;;;;12.00;6.33;;;;;;;;5056966;28;45378;-86
2023/06/07 08:12:31;;;;;;;;;14.75;10.00;;;;;;;;5063347;28;45542;-86
2023/06/07 08:14:57;;;;;;;;;10.67;6.00;;;;;;;;5076824;27;45297;-85
2023/06/07 08:17:22;;;;;;;;;12.67;9.00;;;;;;;;5076979;27;45215;-88
2023/06/07 08:19:47;;;;;;;;;8.67;6.00;;;;;;;;5073821;27;45465;-86
2023/06/07 08:22:12;;;;;;;;;14.25;9.00;;;;;;;;5061159;27;45453;-87
2023/06/07 08:24:38;;;;;;;;;11.50;7.25;;;;;;;;5058063;28;47247;-86
2023/06/07 08:27:03;;;;;;;;;13.33;8.00;;;;;;;;5075642;27;45604;-86
2023/06/07 08:29:28;;;;;;;;;10.50;8.25;;;;;;;;5074218;27;45456;-85
2023/06/07 08:31:53;;;;;;;;;8.00;6.00;;;;;;;;5063703;27;45286;-86
2023/06/07 08:34:20;;;;;;;;;11.50;8.00;;;;;;;;5069130;27;46944;-86
2023/06/07 08:36:45;;;;;;;;;11.50;6.25;;;;;;;;5070283;27;45767;-87
2023/06/07 08:39:10;;;;;;;;;9.00;7.00;;;;;;;;5071390;27;45500;-86
2023/06/07 08:41:35;;;;;;;;;7.67;7.00;;;;;;;;5074491;27;45632;-85
2023/06/07 08:44:01;;;;;;;;;7.67;7.00;;;;;;;;5074525;27;46085;-87
2023/06/07 08:46:36;;;;;;;;;9.75;7.00;;;;;;;;5067860;28;45446;-88
2023/06/07 08:49:02;;;;;;;;;8.25;6.50;;;;;;;;5049005;28;45763;-88
2023/06/07 08:51:28;;;;;;;;;9.50;7.25;;;;;;;;5048200;28;45514;-87
2023/06/07 08:54:00;;;;;;;;;7.50;5.50;;;;;;;;5048594;28;45757;-87
2023/06/07 08:56:28;;;;;;;;;10.25;6.50;;;;;;;;5045998;28;47083;-87
2023/06/07 08:58:53;;;;;;;;;6.75;5.00;;;;;;;;5049822;28;45465;-88
2023/06/07 09:01:20;;;;;;;;;12.75;10.00;;;;;;;;5049919;28;45352;-88
2023/06/07 09:03:49;;;;;;;;;11.25;8.25;;;;;;;;5049424;28;45777;-88
2023/06/07 09:06:15;;;;;;;;;14.75;8.00;;;;;;;;5049263;28;47300;-88
2023/06/07 09:08:41;;;;;;;;;9.50;7.00;;;;;;;;5049672;28;46023;-88
2023/06/07 09:11:06;;;;;;;;;8.33;7.00;;;;;;;;5063767;28;45466;-88
2023/06/07 09:13:32;;;;;;;;;6.00;6.00;;;;;;;;5056036;28;45747;-87
2023/06/07 09:15:59;;;;;;;;;9.25;7.75;;;;;;;;5049888;28;46113;-86
2023/06/07 09:18:39;;;;;;;;;8.75;7.50;;;;;;;;5049780;28;45877;-88
2023/06/07 09:21:17;;;;;;;;;9.50;5.75;;;;;;;;5049825;28;45443;-87
2023/06/07 09:23:42;;;;;;;;;9.50;8.00;;;;;;;;5047947;28;46718;-87
2023/06/07 09:26:07;;;;;;;;;5.00;4.67;;;;;;;;5048802;28;46366;-86
2023/06/07 09:28:36;;;;;;;;;7.25;5.50;;;;;;;;5043117;28;45537;-86
2023/06/07 09:31:02;;;;;;;;;10.75;7.00;;;;;;;;5051277;28;45677;-86
2023/06/07 09:33:28;;;;;;;;;6.50;4.50;;;;;;;;5050911;28;45785;-86
2023/06/07 09:36:03;;;;;;;;;12.25;6.75;;;;;;;;5050135;28;46720;-87
2023/06/07 09:38:28;;;;;;;;;13.25;8.25;;;;;;;;5049861;28;45487;-87
2023/06/07 09:40:54;;;;;;;;;9.67;8.00;;;;;;;;5038663;28;45380;-86
2023/06/07 09:43:20;;;;;;;;;8.00;4.00;;;;;;;;5050047;28;45451;-87
2023/06/07 09:45:55;;;;;;;;;9.00;5.50;;;;;;;;5049580;28;46102;-88
2023/06/07 09:48:20;;;;;;;;;7.50;5.00;;;;;;;;5050526;28;45459;-89
2023/06/07 09:50:55;;;;;;;;;7.50;5.75;;;;;;;;5041557;28;45466;-87
2023/06/07 09:53:21;;;;;;;;;9.25;8.00;;;;;;;;5048690;28;45442;-86
2023/06/07 09:55:46;;;;;;;;;10.33;7.00;;;;;;;;5048535;28;46680;-86
2023/06/07 09:58:19;;;;;;;;;7.67;6.00;;;;;;;;5033233;28;45853;-86
2023/06/07 10:00:44;;;;;;;;;7.50;5.00;;;;;;;;5036252;28;45535;-88
2023/06/07 10:03:10;;;;;;;;;7.75;6.00;;;;;;;;5035631;28;45776;-88
2023/06/07 10:05:35;;;;;;;;;8.75;5.25;;;;;;;;5040914;28;46025;-85
2023/06/07 10:08:01;;;;;;;;;8.75;7.00;;;;;;;;5036249;28;45433;-88
2023/06/07 10:10:28;;;;;;;;;10.00;7.50;;;;;;;;5034881;28;45426;-88
2023/06/07 10:12:54;;;;;;;;;13.50;7.25;;;;;;;;5022589;28;45580;-89
2023/06/07 10:15:23;;;;;;;;;6.75;5.50;;;;;;;;5029535;28;46563;-88
2023/06/07 10:17:55;;;;;;;;;9.75;7.00;;;;;;;;5033898;28;45450;-89
2023/06/07 10:20:24;;;;;;;;;9.50;7.75;;;;;;;;5042175;28;45652;-89
2023/06/07 10:22:51;;;;;;;;;8.75;7.75;;;;;;;;5038677;28;45485;-87
2023/06/07 10:25:19;;;;;;;;;8.00;7.50;;;;;;;;5034232;28;46523;-86
2023/06/07 10:28:07;;;;;;;;;7.00;6.50;;;;;;;;5035659;28;45480;-85
2023/06/07 10:30:34;;;;;;;;;7.25;5.75;;;;;;;;5035603;28;45365;-87
2023/06/07 10:33:03;;;;;;;;;10.50;5.25;;;;;;;;5033257;28;45604;-86
2023/06/07 10:35:29;;;;;;;;;6.00;5.75;;;;;;;;5034814;28;46341;-86
2023/06/07 10:37:54;;;;;;;;;6.50;6.50;;;;;;;;5034962;28;45406;-87
2023/06/07 10:40:20;;;;;;;;;13.75;6.50;;;;;;;;5034797;28;45486;-87
2023/06/07 10:42:46;;;;;;;;;8.00;6.25;;;;;;;;5034181;28;45709;-87
2023/06/07 10:45:15;;;;;;;;;6.75;6.00;;;;;;;;5043063;28;47317;-87
2023/06/07 10:47:41;;;;;;;;;8.00;6.25;;;;;;;;5052946;28;46632;-88
2023/06/07 10:50:06;;;;;;;;;8.00;6.75;;;;;;;;5035712;28;45463;-88
2023/06/07 10:52:32;;;;;;;;;8.25;6.00;;;;;;;;5054883;28;45467;-87
2023/06/07 10:54:57;;;;;;;;;8.00;6.00;;;;;;;;5054449;28;45455;-87
2023/06/07 10:57:32;;;;;;;;;10.00;7.00;;;;;;;;5055079;28;45348;-87
2023/06/07 11:00:16;;;;;;;;;8.25;6.25;;;;;;;;5055138;28;45628;-88
2023/06/07 11:02:41;;;;;;;;;8.50;6.25;;;;;;;;5044618;28;45524;-87
2023/06/07 11:05:08;;;;;;;;;7.33;6.67;;;;;;;;5048030;28;47050;-87
2023/06/07 11:07:37;;;;;;;;;5.50;5.50;;;;;;;;5024092;28;45665;-87
2023/06/07 11:10:02;;;;;;;;;6.75;5.75;;;;;;;;5036044;28;45438;-87
2023/06/07 11:12:44;;;;;;;;;8.25;5.50;;;;;;;;5047665;28;45494;-88
2023/06/07 11:15:20;;;;;;;;;6.50;6.00;;;;;;;;5053925;28;46489;-88
2023/06/07 11:18:05;;;;;;;;;8.25;6.50;;;;;;;;5047742;28;45772;-87
2023/06/07 11:20:40;;;;;;;;;2.75;2.75;;;;;;;;5056356;28;45446;-89
2023/06/07 11:23:21;;;;;;;;;8.25;6.00;;;;;;;;5032790;28;46412;-87
2023/06/07 11:25:51;;;;;;;;;8.00;6.00;;;;;;;;5025516;28;45619;-89
2023/06/07 11:28:31;;;;;;;;;12.75;4.50;;;;;;;;5049730;28;45818;-89
2023/06/07 11:30:56;;;;;;;;;7.75;6.25;;;;;;;;5053556;28;45314;-86
2023/06/07 11:33:22;;;;;;;;;6.75;5.00;;;;;;;;5041171;28;45541;-86
2023/06/07 11:35:47;;;;;;;;;6.00;5.00;;;;;;;;5034723;28;45303;-84
2023/06/07 11:38:13;;;;;;;;;9.50;5.75;;;;;;;;5018973;28;45313;-85
2023/06/07 11:40:38;;;;;;;;;5.00;3.67;;;;;;;;5049821;28;45318;-83
2023/06/07 11:43:03;;;;;;;;;5.33;5.00;;;;;;;;5046693;28;46922;-80
2023/06/07 11:45:33;;;;;;;;;6.75;6.25;;;;;;;;5033966;28;46007;-84
2023/06/07 11:48:02;;;;;;;;;8.50;8.00;;;;;;;;5031735;28;45859;-86
2023/06/07 11:50:27;;;;;;;;;6.25;6.25;;;;;;;;5035646;28;45540;-83
2023/06/07 11:52:53;;;;;;;;;4.75;4.00;;;;;;;;5035365;28;45478;-82
2023/06/07 11:55:18;;;;;;;;;6.00;6.00;;;;;;;;5050490;28;45971;-82
2023/06/07 11:57:47;;;;;;;;;6.00;4.50;;;;;;;;5030282;28;45487;-80
2023/06/07 12:00:15;;;;;;;;;8.00;4.00;;;;;;;;5022491;28;45503;-83
2023/06/07 12:02:41;;;;;;;;;7.00;4.00;;;;;;;;5026074;28;45409;-83
2023/06/07 12:05:09;;;;;;;;;6.75;6.00;;;;;;;;5032594;28;46924;-84
2023/06/07 12:07:35;;;;;;;;;6.25;5.25;;;;;;;;5023911;28;45711;-84
2023/06/07 12:10:00;;;;;;;;;8.00;4.50;;;;;;;;5035345;28;45670;-83
2023/06/07 12:12:25;;;;;;;;;8.00;6.00;;;;;;;;5035218;28;45381;-86
2023/06/07 12:14:58;;;;;;;;;6.00;4.33;;;;;;;;5031138;28;46358;-83
2023/06/07 12:17:24;;;;;;;;;5.75;5.25;;;;;;;;5026222;28;45446;-85
2023/06/07 12:19:49;;;;;;;;;8.75;4.75;;;;;;;;5034349;28;45428;-83
2023/06/07 12:22:14;;;;;;;;;7.67;4.00;;;;;;;;5034826;28;45445;-83
2023/06/07 12:24:40;;;;;;;;;6.25;5.00;;;;;;;;5034367;28;47229;-84
2023/06/07 12:27:05;;;;;;;;;9.67;4.00;;;;;;;;5034281;28;45550;-82
2023/06/07 12:29:31;;;;;;;;;7.00;3.25;;;;;;;;5034652;28;45237;-84
2023/06/07 12:31:56;;;;;;;;;6.67;3.00;;;;;;;;5021608;28;45448;-83
2023/06/07 12:34:26;;;;;;;;;7.75;6.00;;;;;;;;5031971;28;47058;-84
2023/06/07 12:36:51;;;;;;;;;6.00;5.75;;;;;;;;5032993;28;45626;-85
2023/06/07 12:39:18;;;;;;;;;7.33;5.67;;;;;;;;5028378;28;47534;-83
2023/06/07 12:41:43;;;;;;;;;8.75;4.00;;;;;;;;5029255;28;45470;-85
2023/06/07 12:44:09;;;;;;;;;4.00;4.00;;;;;;;;5034233;28;45454;-84
2023/06/07 12:46:34;;;;;;;;;8.25;4.00;;;;;;;;5041788;28;45558;-83
2023/06/07 12:49:01;;;;;;;;;7.25;5.00;;;;;;;;5034188;28;45675;-85
2023/06/07 12:51:26;;;;;;;;;4.00;3.00;;;;;;;;5041578;28;45386;-84
2023/06/07 12:53:52;;;;;;;;;7.00;6.25;;;;;;;;5067277;28;48101;-84
2023/06/07 12:56:17;;;;;;;;;10.50;6.00;;;;;;;;5038238;28;45458;-85
2023/06/07 12:58:42;;;;;;;;;6.33;4.33;;;;;;;;5040877;28;45416;-84
2023/06/07 13:01:07;;;;;;;;;5.00;5.00;;;;;;;;5045101;28;45383;-83
2023/06/07 13:03:32;;;;;;;;;5.33;4.00;;;;;;;;5049695;28;46051;-83
2023/06/07 13:05:58;;;;;;;;;8.00;5.00;;;;;;;;5042395;28;45512;-85
2023/06/07 13:08:23;;;;;;;;;7.00;4.00;;;;;;;;5033943;28;45366;-84
2023/06/07 13:10:48;;;;;;;;;6.67;5.00;;;;;;;;5042641;28;45379;-84
2023/06/07 13:13:14;;;;;;;;;8.67;3.67;;;;;;;;5046005;28;45597;-84
2023/06/07 13:15:39;;;;;;;;;5.00;5.00;;;;;;;;5049403;28;45424;-84
2023/06/07 13:18:04;;;;;;;;;5.00;4.00;;;;;;;;5046810;28;45547;-84
2023/06/07 13:20:30;;;;;;;;;6.00;5.00;;;;;;;;5048411;28;45464;-84
2023/06/07 13:22:55;;;;;;;;;6.00;4.25;;;;;;;;5041444;28;46520;-84
2023/06/07 13:25:20;;;;;;;;;4.67;4.00;;;;;;;;5048528;28;45382;-84
2023/06/07 13:27:46;;;;;;;;;9.33;5.33;;;;;;;;5050353;28;45437;-85
2023/06/07 13:30:11;;;;;;;;;5.50;4.00;;;;;;;;5037873;28;45435;-85
2023/06/07 13:32:36;;;;;;;;;5.67;3.00;;;;;;;;5048277;28;47695;-85
2023/06/07 13:35:01;;;;;;;;;5.00;3.00;;;;;;;;5039653;28;45437;-84
2023/06/07 13:37:26;;;;;;;;;5.33;4.33;;;;;;;;5041764;28;45308;-85
2023/06/07 13:39:52;;;;;;;;;7.00;6.00;;;;;;;;5044578;28;45348;-83
2023/06/07 13:42:21;;;;;;;;;8.00;5.33;;;;;;;;5041093;28;46007;-84
2023/06/07 13:44:47;;;;;;;;;3.50;3.00;;;;;;;;5044497;28;45425;-83
2023/06/07 13:47:12;;;;;;;;;6.50;4.00;;;;;;;;5044049;28;45360;-84
2023/06/07 13:49:37;;;;;;;;;5.00;4.33;;;;;;;;5037280;28;45766;-85
2023/06/07 13:52:03;;;;;;;;;5.00;5.00;;;;;;;;5044031;28;45627;-84
2023/06/07 13:54:31;;;;;;;;;6.00;5.25;;;;;;;;5027689;28;45786;-88
2023/06/07 13:56:56;;;;;;;;;4.00;3.75;;;;;;;;5040924;28;45399;-87
2023/06/07 13:59:22;;;;;;;;;4.67;4.67;;;;;;;;5040642;28;45675;-87
2023/06/07 14:01:47;;;;;;;;;6.00;5.00;;;;;;;;5031060;28;46265;-90
2023/06/07 14:04:12;;;;;;;;;6.67;5.67;;;;;;;;5037490;28;45275;-89
2023/06/07 14:06:38;;;;;;;;;5.67;5.00;;;;;;;;5035448;28;45491;-92
2023/06/07 14:09:04;;;;;;;;;4.25;3.50;;;;;;;;5037924;28;45250;-91
2023/06/07 14:11:30;;;;;;;;;6.00;5.50;;;;;;;;5048948;28;46201;-92
2023/06/07 14:13:56;;;;;;;;;9.25;4.00;;;;;;;;5039374;28;45284;-91
2023/06/07 14:16:21;;;;;;;;;5.67;4.00;;;;;;;;5057808;28;45524;-88
2023/06/07 14:18:47;;;;;;;;;7.00;7.00;;;;;;;;5043585;28;45309;-87
2023/06/07 14:21:12;;;;;;;;;5.00;4.00;;;;;;;;5019541;28;47178;-88
2023/06/07 14:23:38;;;;;;;;;5.00;4.00;;;;;;;;5051459;28;45554;-88
2023/06/07 14:26:03;;;;;;;;;5.00;4.00;;;;;;;;5045548;28;45429;-88
2023/06/07 14:28:28;;;;;;;;;6.00;4.33;;;;;;;;5034984;28;45297;-87
2023/06/07 14:30:53;;;;;;;;;5.00;4.67;;;;;;;;5019968;28;46446;-86
2023/06/07 14:33:18;;;;;;;;;8.67;5.00;;;;;;;;5032580;28;45354;-90